Garden City Regional Airport
KGCK : now visible

Airfield :











YOU CAN JOIN US ON...

 
LOGIN :

Register | Disclaimer

   EN    FR    IT 

 









Legend :    VFR   Marginal VFR   IFR   Intensive IFR   Very Intensive IFR
Visi :
Ceiling :
>= 8 km
>= 3000ft
5 to 8 km
1000 to 3000 ft
1500m to 5 km
500 to 1000 ft
800 to 1500m
200 to 500 ft
< 800m
< 200 ft
Symbols :   Thunderstorms  Fog  Heavy snow  Heavy precipitations  Wind > 20 kt






- Airport Elevation : 2891 ft
- IATA code : GCK


KGCK - Garden City Regional

CURRENT METAR :
  • 230054Z 16019G30KT 10SM CLR 12/03 A2976 RMK AO2 PK WND 15030/0020 SLP075 T01170033

EXPIRED METARs :
  • 222354Z 16013G27KT 10SM CLR 15/04 A2976 RMK AO2 PK WND 18035/2314 SLP074 T01500039 10167 20117 55003

TAF KGCK
Valid from the 23 at 00:00 until the 24 at 00:00 UTC


222336Z 2300/2324 17021G30KT P6SM SCT200
FM230300 15016G25KT P6SM SCT120
FM230700 16012G17KT P6SM BKN029
FM231100 10005KT P6SM BKN012
FM231200 04006KT 6SM BR BKN003
FM231600 04008KT P6SM BKN010
FM231800 04010KT P6SM SCT030
KZKC FIR / North America



MET'MAP, your aeronautical weather chart ! - Copyright ORBIFLY December 2007 - Disclaimer

ORBIFLY MET'MAP TEAM :

Programming & Development : Alexandra Zaïnal
Concept & original design : Baudouin d'Aumeries
Assistance for programming : Marc-Olivier Méhu
Technical & hardware support : Manuel Goepfert

Contact : metmap@orbifly.com




SOURCES & CREDITS :

   NOAA       Earth
Advisory